sensor_id;sensor_type;location;lat;lon;timestamp;P1;durP1;ratioP1;P2;durP2;ratioP2
66603;SDS011;53460;39.612;8.822;2024-03-08T00:00:40;3.85;;;0.93;;
66603;SDS011;53460;39.612;8.822;2024-03-08T00:03:08;1.92;;;1.17;;
66603;SDS011;53460;39.612;8.822;2024-03-08T00:05:35;1.48;;;1.10;;
66603;SDS011;53460;39.612;8.822;2024-03-08T00:08:04;1.30;;;0.82;;
66603;SDS011;53460;39.612;8.822;2024-03-08T00:10:30;2.15;;;1.55;;
66603;SDS011;53460;39.612;8.822;2024-03-08T00:12:56;1.73;;;0.77;;
66603;SDS011;53460;39.612;8.822;2024-03-08T00:15:23;3.33;;;1.30;;
66603;SDS011;53460;39.612;8.822;2024-03-08T00:17:48;2.17;;;1.25;;
66603;SDS011;53460;39.612;8.822;2024-03-08T00:20:14;2.95;;;0.93;;
66603;SDS011;53460;39.612;8.822;2024-03-08T00:22:43;2.95;;;1.38;;
66603;SDS011;53460;39.612;8.822;2024-03-08T00:25:09;1.88;;;1.23;;
66603;SDS011;53460;39.612;8.822;2024-03-08T00:27:34;1.65;;;1.50;;
66603;SDS011;53460;39.612;8.822;2024-03-08T00:30:00;0.93;;;0.63;;
66603;SDS011;53460;39.612;8.822;2024-03-08T00:32:26;2.65;;;0.98;;
66603;SDS011;53460;39.612;8.822;2024-03-08T00:34:57;2.10;;;0.80;;
66603;SDS011;53460;39.612;8.822;2024-03-08T00:37:23;0.85;;;0.70;;
66603;SDS011;53460;39.612;8.822;2024-03-08T00:39:52;2.03;;;0.95;;
66603;SDS011;53460;39.612;8.822;2024-03-08T00:42:18;3.25;;;0.80;;
66603;SDS011;53460;39.612;8.822;2024-03-08T00:44:44;1.67;;;0.80;;
66603;SDS011;53460;39.612;8.822;2024-03-08T00:47:10;2.03;;;0.90;;
66603;SDS011;53460;39.612;8.822;2024-03-08T00:49:37;3.92;;;1.15;;
66603;SDS011;53460;39.612;8.822;2024-03-08T00:52:03;1.10;;;0.82;;
66603;SDS011;53460;39.612;8.822;2024-03-08T00:54:35;2.13;;;0.75;;
66603;SDS011;53460;39.612;8.822;2024-03-08T00:57:02;0.77;;;0.60;;
66603;SDS011;53460;39.612;8.822;2024-03-08T00:59:28;4.72;;;1.27;;
66603;SDS011;53460;39.612;8.822;2024-03-08T01:01:54;4.57;;;0.60;;
66603;SDS011;53460;39.612;8.822;2024-03-08T01:04:20;3.30;;;0.90;;
66603;SDS011;53460;39.612;8.822;2024-03-08T01:06:46;1.02;;;0.50;;
66603;SDS011;53460;39.612;8.822;2024-03-08T01:09:12;0.77;;;0.68;;
66603;SDS011;53460;39.612;8.822;2024-03-08T01:11:38;2.47;;;0.73;;
66603;SDS011;53460;39.612;8.822;2024-03-08T01:14:05;2.28;;;0.98;;
66603;SDS011;53460;39.612;8.822;2024-03-08T01:16:31;0.93;;;0.73;;
66603;SDS011;53460;39.612;8.822;2024-03-08T01:18:58;1.83;;;0.77;;
66603;SDS011;53460;39.612;8.822;2024-03-08T01:21:24;4.18;;;0.85;;
66603;SDS011;53460;39.612;8.822;2024-03-08T01:23:50;5.22;;;1.23;;
66603;SDS011;53460;39.612;8.822;2024-03-08T01:26:15;5.65;;;0.80;;
66603;SDS011;53460;39.612;8.822;2024-03-08T01:28:41;1.10;;;0.50;;
66603;SDS011;53460;39.612;8.822;2024-03-08T01:31:07;0.40;;;0.40;;
66603;SDS011;53460;39.612;8.822;2024-03-08T01:33:32;0.40;;;0.40;;
66603;SDS011;53460;39.612;8.822;2024-03-08T01:35:58;2.70;;;0.80;;
66603;SDS011;53460;39.612;8.822;2024-03-08T01:38:24;2.38;;;0.73;;
66603;SDS011;53460;39.612;8.822;2024-03-08T01:40:50;1.77;;;0.77;;
66603;SDS011;53460;39.612;8.822;2024-03-08T01:43:20;1.58;;;0.73;;
66603;SDS011;53460;39.612;8.822;2024-03-08T01:45:47;3.38;;;0.73;;
66603;SDS011;53460;39.612;8.822;2024-03-08T01:48:13;2.17;;;0.70;;
66603;SDS011;53460;39.612;8.822;2024-03-08T01:50:40;3.28;;;0.52;;
66603;SDS011;53460;39.612;8.822;2024-03-08T01:53:06;4.18;;;0.93;;
66603;SDS011;53460;39.612;8.822;2024-03-08T01:55:33;1.77;;;1.02;;
66603;SDS011;53460;39.612;8.822;2024-03-08T01:58:01;1.10;;;0.63;;
66603;SDS011;53460;39.612;8.822;2024-03-08T02:00:29;2.97;;;0.95;;
66603;SDS011;53460;39.612;8.822;2024-03-08T02:02:55;3.42;;;1.33;;
66603;SDS011;53460;39.612;8.822;2024-03-08T02:05:22;3.25;;;1.10;;
66603;SDS011;53460;39.612;8.822;2024-03-08T02:07:48;2.15;;;0.73;;
66603;SDS011;53460;39.612;8.822;2024-03-08T02:10:14;4.72;;;1.38;;
66603;SDS011;53460;39.612;8.822;2024-03-08T02:12:40;1.67;;;0.60;;
66603;SDS011;53460;39.612;8.822;2024-03-08T02:15:07;1.80;;;1.08;;
66603;SDS011;53460;39.612;8.822;2024-03-08T02:17:33;2.28;;;0.82;;
66603;SDS011;53460;39.612;8.822;2024-03-08T02:20:01;3.50;;;0.57;;
66603;SDS011;53460;39.612;8.822;2024-03-08T02:22:28;5.18;;;1.08;;
66603;SDS011;53460;39.612;8.822;2024-03-08T02:24:55;2.13;;;0.50;;
66603;SDS011;53460;39.612;8.822;2024-03-08T02:27:25;3.08;;;0.50;;
66603;SDS011;53460;39.612;8.822;2024-03-08T02:29:52;2.72;;;0.95;;
66603;SDS011;53460;39.612;8.822;2024-03-08T02:32:21;3.60;;;1.00;;
66603;SDS011;53460;39.612;8.822;2024-03-08T02:34:48;2.08;;;0.77;;
66603;SDS011;53460;39.612;8.822;2024-03-08T02:37:14;1.40;;;0.65;;
66603;SDS011;53460;39.612;8.822;2024-03-08T02:39:40;2.58;;;0.63;;
66603;SDS011;53460;39.612;8.822;2024-03-08T02:42:06;5.00;;;0.73;;
66603;SDS011;53460;39.612;8.822;2024-03-08T02:44:32;1.23;;;0.60;;
66603;SDS011;53460;39.612;8.822;2024-03-08T02:47:01;1.50;;;0.80;;
66603;SDS011;53460;39.612;8.822;2024-03-08T02:49:26;2.85;;;0.90;;
66603;SDS011;53460;39.612;8.822;2024-03-08T02:51:53;0.68;;;0.50;;
66603;SDS011;53460;39.612;8.822;2024-03-08T02:54:19;2.28;;;0.80;;
66603;SDS011;53460;39.612;8.822;2024-03-08T02:56:46;2.47;;;0.57;;
66603;SDS011;53460;39.612;8.822;2024-03-08T02:59:12;3.75;;;0.60;;
66603;SDS011;53460;39.612;8.822;2024-03-08T03:01:38;3.10;;;0.60;;
66603;SDS011;53460;39.612;8.822;2024-03-08T03:04:04;2.10;;;0.50;;
66603;SDS011;53460;39.612;8.822;2024-03-08T03:06:30;0.60;;;0.60;;
66603;SDS011;53460;39.612;8.822;2024-03-08T03:08:56;2.10;;;0.85;;
66603;SDS011;53460;39.612;8.822;2024-03-08T03:11:22;3.85;;;0.82;;
66603;SDS011;53460;39.612;8.822;2024-03-08T03:13:49;2.47;;;0.90;;
66603;SDS011;53460;39.612;8.822;2024-03-08T03:16:18;4.88;;;1.27;;
66603;SDS011;53460;39.612;8.822;2024-03-08T03:18:45;1.17;;;0.50;;
66603;SDS011;53460;39.612;8.822;2024-03-08T03:21:11;2.30;;;0.50;;
66603;SDS011;53460;39.612;8.822;2024-03-08T03:23:38;2.83;;;0.90;;
66603;SDS011;53460;39.612;8.822;2024-03-08T03:26:05;1.55;;;0.60;;
66603;SDS011;53460;39.612;8.822;2024-03-08T03:28:36;1.00;;;0.47;;
66603;SDS011;53460;39.612;8.822;2024-03-08T03:31:07;4.45;;;0.77;;
66603;SDS011;53460;39.612;8.822;2024-03-08T03:33:33;1.17;;;0.60;;
66603;SDS011;53460;39.612;8.822;2024-03-08T03:36:02;1.45;;;0.47;;
66603;SDS011;53460;39.612;8.822;2024-03-08T03:38:30;0.93;;;0.30;;
66603;SDS011;53460;39.612;8.822;2024-03-08T03:40:57;4.13;;;0.70;;
66603;SDS011;53460;39.612;8.822;2024-03-08T03:43:29;3.97;;;0.98;;
66603;SDS011;53460;39.612;8.822;2024-03-08T03:45:55;0.55;;;0.38;;
66603;SDS011;53460;39.612;8.822;2024-03-08T03:48:20;2.72;;;0.82;;
66603;SDS011;53460;39.612;8.822;2024-03-08T03:50:46;0.85;;;0.57;;
66603;SDS011;53460;39.612;8.822;2024-03-08T03:53:12;1.13;;;0.60;;
66603;SDS011;53460;39.612;8.822;2024-03-08T03:55:38;0.88;;;0.43;;
66603;SDS011;53460;39.612;8.822;2024-03-08T03:58:04;1.65;;;0.50;;
66603;SDS011;53460;39.612;8.822;2024-03-08T04:00:29;1.55;;;0.60;;
66603;SDS011;53460;39.612;8.822;2024-03-08T04:02:55;1.40;;;0.75;;
66603;SDS011;53460;39.612;8.822;2024-03-08T04:05:24;2.80;;;0.50;;
66603;SDS011;53460;39.612;8.822;2024-03-08T04:07:50;1.27;;;0.52;;
66603;SDS011;53460;39.612;8.822;2024-03-08T04:10:15;4.35;;;0.95;;
66603;SDS011;53460;39.612;8.822;2024-03-08T04:12:41;2.00;;;0.55;;
66603;SDS011;53460;39.612;8.822;2024-03-08T04:15:07;4.07;;;1.00;;
66603;SDS011;53460;39.612;8.822;2024-03-08T04:17:33;0.93;;;0.68;;
66603;SDS011;53460;39.612;8.822;2024-03-08T04:20:05;2.47;;;0.50;;
66603;SDS011;53460;39.612;8.822;2024-03-08T04:22:39;2.85;;;0.70;;
66603;SDS011;53460;39.612;8.822;2024-03-08T04:25:06;2.33;;;0.98;;
66603;SDS011;53460;39.612;8.822;2024-03-08T04:27:35;3.53;;;0.60;;
66603;SDS011;53460;39.612;8.822;2024-03-08T04:30:01;1.45;;;0.60;;
66603;SDS011;53460;39.612;8.822;2024-03-08T04:32:27;2.25;;;0.68;;
66603;SDS011;53460;39.612;8.822;2024-03-08T04:34:54;5.13;;;0.90;;
66603;SDS011;53460;39.612;8.822;2024-03-08T04:37:21;3.22;;;1.02;;
66603;SDS011;53460;39.612;8.822;2024-03-08T04:39:47;1.42;;;0.45;;
66603;SDS011;53460;39.612;8.822;2024-03-08T04:42:13;2.90;;;0.50;;
66603;SDS011;53460;39.612;8.822;2024-03-08T04:44:40;0.98;;;0.65;;
66603;SDS011;53460;39.612;8.822;2024-03-08T04:47:05;0.68;;;0.50;;
66603;SDS011;53460;39.612;8.822;2024-03-08T04:49:34;2.60;;;1.38;;
66603;SDS011;53460;39.612;8.822;2024-03-08T04:52:03;1.13;;;0.63;;
66603;SDS011;53460;39.612;8.822;2024-03-08T04:54:29;0.77;;;0.70;;
66603;SDS011;53460;39.612;8.822;2024-03-08T04:56:56;2.47;;;0.98;;
66603;SDS011;53460;39.612;8.822;2024-03-08T04:59:22;2.28;;;0.68;;
66603;SDS011;53460;39.612;8.822;2024-03-08T05:01:49;1.83;;;1.00;;
66603;SDS011;53460;39.612;8.822;2024-03-08T05:04:14;5.85;;;1.70;;
66603;SDS011;53460;39.612;8.822;2024-03-08T05:06:40;1.83;;;1.02;;
66603;SDS011;53460;39.612;8.822;2024-03-08T05:09:06;2.00;;;0.95;;
66603;SDS011;53460;39.612;8.822;2024-03-08T05:11:44;3.70;;;1.30;;
66603;SDS011;53460;39.612;8.822;2024-03-08T05:14:11;2.13;;;0.85;;
66603;SDS011;53460;39.612;8.822;2024-03-08T05:16:44;1.63;;;0.73;;
66603;SDS011;53460;39.612;8.822;2024-03-08T05:19:16;1.90;;;0.80;;
66603;SDS011;53460;39.612;8.822;2024-03-08T05:21:47;1.63;;;0.63;;
66603;SDS011;53460;39.612;8.822;2024-03-08T05:24:13;1.00;;;0.50;;
66603;SDS011;53460;39.612;8.822;2024-03-08T05:26:40;1.95;;;0.82;;
66603;SDS011;53460;39.612;8.822;2024-03-08T05:29:07;1.33;;;0.63;;
66603;SDS011;53460;39.612;8.822;2024-03-08T05:31:47;0.73;;;0.55;;
66603;SDS011;53460;39.612;8.822;2024-03-08T05:34:15;2.17;;;0.70;;
66603;SDS011;53460;39.612;8.822;2024-03-08T05:36:41;3.88;;;0.85;;
66603;SDS011;53460;39.612;8.822;2024-03-08T05:39:11;1.60;;;0.57;;
66603;SDS011;53460;39.612;8.822;2024-03-08T05:41:41;4.13;;;1.02;;
66603;SDS011;53460;39.612;8.822;2024-03-08T05:44:08;3.75;;;0.85;;
66603;SDS011;53460;39.612;8.822;2024-03-08T05:46:34;1.23;;;0.80;;
66603;SDS011;53460;39.612;8.822;2024-03-08T05:49:03;1.63;;;1.33;;
66603;SDS011;53460;39.612;8.822;2024-03-08T05:51:37;1.65;;;0.60;;
66603;SDS011;53460;39.612;8.822;2024-03-08T05:54:04;2.63;;;0.60;;
66603;SDS011;53460;39.612;8.822;2024-03-08T05:56:32;4.30;;;0.90;;
66603;SDS011;53460;39.612;8.822;2024-03-08T05:58:58;3.03;;;1.15;;
66603;SDS011;53460;39.612;8.822;2024-03-08T06:01:24;6.75;;;2.40;;
66603;SDS011;53460;39.612;8.822;2024-03-08T06:03:51;4.82;;;1.58;;
66603;SDS011;53460;39.612;8.822;2024-03-08T06:06:24;2.78;;;1.50;;
66603;SDS011;53460;39.612;8.822;2024-03-08T06:08:50;3.72;;;1.10;;
66603;SDS011;53460;39.612;8.822;2024-03-08T06:11:16;1.75;;;0.88;;
66603;SDS011;53460;39.612;8.822;2024-03-08T06:13:43;0.80;;;0.60;;
66603;SDS011;53460;39.612;8.822;2024-03-08T06:16:09;3.00;;;0.98;;
66603;SDS011;53460;39.612;8.822;2024-03-08T06:18:35;4.85;;;1.15;;
66603;SDS011;53460;39.612;8.822;2024-03-08T06:21:07;2.53;;;1.48;;
66603;SDS011;53460;39.612;8.822;2024-03-08T06:23:37;2.30;;;0.70;;
66603;SDS011;53460;39.612;8.822;2024-03-08T06:26:05;3.28;;;0.88;;
66603;SDS011;53460;39.612;8.822;2024-03-08T06:28:31;1.02;;;0.50;;
66603;SDS011;53460;39.612;8.822;2024-03-08T06:30:58;1.38;;;0.70;;
66603;SDS011;53460;39.612;8.822;2024-03-08T06:33:24;2.83;;;1.13;;
66603;SDS011;53460;39.612;8.822;2024-03-08T06:35:52;2.20;;;1.05;;
66603;SDS011;53460;39.612;8.822;2024-03-08T06:38:18;2.65;;;1.58;;
66603;SDS011;53460;39.612;8.822;2024-03-08T06:40:44;10.60;;;6.43;;
66603;SDS011;53460;39.612;8.822;2024-03-08T06:43:13;8.25;;;3.88;;
66603;SDS011;53460;39.612;8.822;2024-03-08T06:45:50;7.03;;;3.70;;
66603;SDS011;53460;39.612;8.822;2024-03-08T06:48:18;7.60;;;3.55;;
66603;SDS011;53460;39.612;8.822;2024-03-08T06:50:45;3.13;;;1.83;;
66603;SDS011;53460;39.612;8.822;2024-03-08T06:53:12;10.98;;;6.18;;
66603;SDS011;53460;39.612;8.822;2024-03-08T06:55:38;11.68;;;4.97;;
66603;SDS011;53460;39.612;8.822;2024-03-08T06:58:05;12.02;;;6.70;;
66603;SDS011;53460;39.612;8.822;2024-03-08T07:00:32;6.13;;;4.97;;
66603;SDS011;53460;39.612;8.822;2024-03-08T07:02:58;3.15;;;2.15;;
66603;SDS011;53460;39.612;8.822;2024-03-08T07:05:26;4.00;;;1.63;;
66603;SDS011;53460;39.612;8.822;2024-03-08T07:07:53;8.60;;;1.90;;
66603;SDS011;53460;39.612;8.822;2024-03-08T07:10:22;3.78;;;0.90;;
66603;SDS011;53460;39.612;8.822;2024-03-08T07:12:51;2.58;;;1.10;;
66603;SDS011;53460;39.612;8.822;2024-03-08T07:15:18;1.65;;;1.33;;
66603;SDS011;53460;39.612;8.822;2024-03-08T07:17:47;0.80;;;0.80;;
66603;SDS011;53460;39.612;8.822;2024-03-08T07:20:13;1.05;;;0.70;;
66603;SDS011;53460;39.612;8.822;2024-03-08T07:22:41;5.30;;;2.35;;
66603;SDS011;53460;39.612;8.822;2024-03-08T07:25:07;3.20;;;1.90;;
66603;SDS011;53460;39.612;8.822;2024-03-08T07:27:33;3.08;;;1.50;;
66603;SDS011;53460;39.612;8.822;2024-03-08T07:30:03;3.45;;;1.90;;
66603;SDS011;53460;39.612;8.822;2024-03-08T07:32:28;3.88;;;1.75;;
66603;SDS011;53460;39.612;8.822;2024-03-08T07:34:55;3.65;;;1.95;;
66603;SDS011;53460;39.612;8.822;2024-03-08T07:37:21;1.02;;;0.68;;
66603;SDS011;53460;39.612;8.822;2024-03-08T07:39:47;4.95;;;1.83;;
66603;SDS011;53460;39.612;8.822;2024-03-08T07:42:13;3.92;;;1.35;;
66603;SDS011;53460;39.612;8.822;2024-03-08T07:44:38;1.73;;;1.08;;
66603;SDS011;53460;39.612;8.822;2024-03-08T07:47:05;2.92;;;2.05;;
66603;SDS011;53460;39.612;8.822;2024-03-08T07:49:34;1.38;;;1.17;;
66603;SDS011;53460;39.612;8.822;2024-03-08T07:52:01;6.10;;;1.73;;
66603;SDS011;53460;39.612;8.822;2024-03-08T07:54:26;2.47;;;2.08;;
66603;SDS011;53460;39.612;8.822;2024-03-08T07:56:52;3.38;;;0.80;;
66603;SDS011;53460;39.612;8.822;2024-03-08T07:59:18;2.25;;;1.20;;
66603;SDS011;53460;39.612;8.822;2024-03-08T08:01:44;5.63;;;2.92;;
66603;SDS011;53460;39.612;8.822;2024-03-08T08:04:10;5.75;;;2.67;;
66603;SDS011;53460;39.612;8.822;2024-03-08T08:06:40;7.68;;;2.33;;
66603;SDS011;53460;39.612;8.822;2024-03-08T08:09:09;6.80;;;3.88;;
66603;SDS011;53460;39.612;8.822;2024-03-08T08:11:41;6.80;;;3.45;;
66603;SDS011;53460;39.612;8.822;2024-03-08T08:14:09;6.43;;;4.30;;
66603;SDS011;53460;39.612;8.822;2024-03-08T08:16:35;4.68;;;2.75;;
66603;SDS011;53460;39.612;8.822;2024-03-08T08:19:06;14.18;;;4.22;;
66603;SDS011;53460;39.612;8.822;2024-03-08T08:21:35;4.88;;;2.75;;
66603;SDS011;53460;39.612;8.822;2024-03-08T08:24:04;4.13;;;1.75;;
66603;SDS011;53460;39.612;8.822;2024-03-08T08:26:30;3.03;;;1.73;;
66603;SDS011;53460;39.612;8.822;2024-03-08T08:28:56;2.95;;;1.00;;
66603;SDS011;53460;39.612;8.822;2024-03-08T08:31:21;4.07;;;1.27;;
66603;SDS011;53460;39.612;8.822;2024-03-08T08:33:47;5.45;;;1.17;;
66603;SDS011;53460;39.612;8.822;2024-03-08T08:36:17;3.35;;;1.05;;
66603;SDS011;53460;39.612;8.822;2024-03-08T08:38:43;5.25;;;1.83;;
66603;SDS011;53460;39.612;8.822;2024-03-08T08:41:09;2.53;;;0.70;;
66603;SDS011;53460;39.612;8.822;2024-03-08T08:43:36;2.65;;;0.70;;
66603;SDS011;53460;39.612;8.822;2024-03-08T08:46:02;4.50;;;1.17;;
66603;SDS011;53460;39.612;8.822;2024-03-08T08:48:28;2.58;;;0.90;;
66603;SDS011;53460;39.612;8.822;2024-03-08T08:50:54;4.22;;;0.90;;
66603;SDS011;53460;39.612;8.822;2024-03-08T08:53:20;1.88;;;0.68;;
66603;SDS011;53460;39.612;8.822;2024-03-08T08:55:47;2.85;;;0.90;;
66603;SDS011;53460;39.612;8.822;2024-03-08T08:58:13;3.38;;;0.82;;
66603;SDS011;53460;39.612;8.822;2024-03-08T09:00:39;3.20;;;0.77;;
66603;SDS011;53460;39.612;8.822;2024-03-08T09:03:05;2.80;;;1.20;;
66603;SDS011;53460;39.612;8.822;2024-03-08T09:05:34;2.53;;;1.42;;
66603;SDS011;53460;39.612;8.822;2024-03-08T09:07:59;3.75;;;0.82;;
66603;SDS011;53460;39.612;8.822;2024-03-08T09:10:26;5.15;;;1.00;;
66603;SDS011;53460;39.612;8.822;2024-03-08T09:12:53;2.03;;;0.90;;
66603;SDS011;53460;39.612;8.822;2024-03-08T09:15:18;1.92;;;0.80;;
66603;SDS011;53460;39.612;8.822;2024-03-08T09:17:46;1.92;;;0.82;;
66603;SDS011;53460;39.612;8.822;2024-03-08T09:20:13;2.13;;;0.80;;
66603;SDS011;53460;39.612;8.822;2024-03-08T09:22:43;2.13;;;0.73;;
66603;SDS011;53460;39.612;8.822;2024-03-08T09:25:09;1.88;;;1.00;;
66603;SDS011;53460;39.612;8.822;2024-03-08T09:27:35;3.10;;;0.80;;
66603;SDS011;53460;39.612;8.822;2024-03-08T09:30:01;2.00;;;0.80;;
66603;SDS011;53460;39.612;8.822;2024-03-08T09:32:26;1.38;;;0.80;;
66603;SDS011;53460;39.612;8.822;2024-03-08T09:34:52;2.63;;;0.95;;
66603;SDS011;53460;39.612;8.822;2024-03-08T09:37:18;3.85;;;1.13;;
66603;SDS011;53460;39.612;8.822;2024-03-08T09:39:44;2.75;;;0.80;;
66603;SDS011;53460;39.612;8.822;2024-03-08T09:42:10;1.10;;;0.52;;
66603;SDS011;53460;39.612;8.822;2024-03-08T09:44:43;2.97;;;1.02;;
66603;SDS011;53460;39.612;8.822;2024-03-08T09:49:41;2.33;;;0.85;;
66603;SDS011;53460;39.612;8.822;2024-03-08T09:52:08;2.55;;;0.70;;
66603;SDS011;53460;39.612;8.822;2024-03-08T09:54:35;2.90;;;0.80;;
66603;SDS011;53460;39.612;8.822;2024-03-08T09:57:01;1.67;;;1.05;;
66603;SDS011;53460;39.612;8.822;2024-03-08T09:59:33;4.90;;;1.60;;
66603;SDS011;53460;39.612;8.822;2024-03-08T10:01:58;2.75;;;0.90;;
66603;SDS011;53460;39.612;8.822;2024-03-08T10:04:24;4.80;;;1.13;;
66603;SDS011;53460;39.612;8.822;2024-03-08T10:06:53;2.28;;;1.05;;
66603;SDS011;53460;39.612;8.822;2024-03-08T10:09:21;6.00;;;1.20;;
66603;SDS011;53460;39.612;8.822;2024-03-08T10:11:50;4.20;;;1.67;;
66603;SDS011;53460;39.612;8.822;2024-03-08T10:14:15;2.40;;;1.20;;
66603;SDS011;53460;39.612;8.822;2024-03-08T10:16:41;3.30;;;1.50;;
66603;SDS011;53460;39.612;8.822;2024-03-08T10:19:07;3.97;;;1.33;;
66603;SDS011;53460;39.612;8.822;2024-03-08T10:21:33;9.52;;;1.40;;
66603;SDS011;53460;39.612;8.822;2024-03-08T10:23:59;2.97;;;1.50;;
66603;SDS011;53460;39.612;8.822;2024-03-08T10:26:24;3.92;;;1.27;;
66603;SDS011;53460;39.612;8.822;2024-03-08T10:28:51;4.68;;;1.15;;
66603;SDS011;53460;39.612;8.822;2024-03-08T10:31:20;4.00;;;1.65;;
66603;SDS011;53460;39.612;8.822;2024-03-08T10:33:46;6.63;;;2.08;;
66603;SDS011;53460;39.612;8.822;2024-03-08T10:36:12;4.47;;;2.25;;
66603;SDS011;53460;39.612;8.822;2024-03-08T10:38:40;4.00;;;1.10;;
66603;SDS011;53460;39.612;8.822;2024-03-08T10:41:07;3.20;;;1.55;;
66603;SDS011;53460;39.612;8.822;2024-03-08T10:49:37;2.67;;;1.37;;
66603;SDS011;53460;39.612;8.822;2024-03-08T10:52:06;2.50;;;1.00;;
66603;SDS011;53460;39.612;8.822;2024-03-08T10:54:33;3.33;;;1.67;;
66603;SDS011;53460;39.612;8.822;2024-03-08T10:57:03;7.45;;;1.60;;
66603;SDS011;53460;39.612;8.822;2024-03-08T10:59:31;3.00;;;2.10;;
66603;SDS011;53460;39.612;8.822;2024-03-08T11:01:58;2.45;;;1.40;;
66603;SDS011;53460;39.612;8.822;2024-03-08T11:04:23;2.08;;;1.20;;
66603;SDS011;53460;39.612;8.822;2024-03-08T11:06:50;4.53;;;1.55;;
66603;SDS011;53460;39.612;8.822;2024-03-08T11:09:31;2.03;;;1.38;;
66603;SDS011;53460;39.612;8.822;2024-03-08T11:14:55;3.03;;;2.13;;
66603;SDS011;53460;39.612;8.822;2024-03-08T11:19:56;3.75;;;2.25;;
66603;SDS011;53460;39.612;8.822;2024-03-08T11:22:23;8.65;;;2.80;;
66603;SDS011;53460;39.612;8.822;2024-03-08T11:24:52;3.72;;;1.60;;
66603;SDS011;53460;39.612;8.822;2024-03-08T11:27:18;5.57;;;2.80;;
66603;SDS011;53460;39.612;8.822;2024-03-08T11:30:00;4.78;;;1.98;;
66603;SDS011;53460;39.612;8.822;2024-03-08T11:32:36;6.38;;;2.00;;
66603;SDS011;53460;39.612;8.822;2024-03-08T11:35:17;5.63;;;1.85;;
66603;SDS011;53460;39.612;8.822;2024-03-08T11:37:46;3.40;;;1.45;;
66603;SDS011;53460;39.612;8.822;2024-03-08T11:40:13;4.65;;;2.25;;
66603;SDS011;53460;39.612;8.822;2024-03-08T11:42:45;3.47;;;2.20;;
66603;SDS011;53460;39.612;8.822;2024-03-08T11:45:16;3.72;;;1.73;;
66603;SDS011;53460;39.612;8.822;2024-03-08T11:47:43;2.45;;;1.10;;
66603;SDS011;53460;39.612;8.822;2024-03-08T11:50:12;6.40;;;1.55;;
66603;SDS011;53460;39.612;8.822;2024-03-08T11:52:38;3.35;;;1.77;;
66603;SDS011;53460;39.612;8.822;2024-03-08T11:55:05;6.15;;;1.95;;
66603;SDS011;53460;39.612;8.822;2024-03-08T11:57:32;3.50;;;1.45;;
66603;SDS011;53460;39.612;8.822;2024-03-08T11:59:58;4.22;;;1.77;;
66603;SDS011;53460;39.612;8.822;2024-03-08T12:02:34;7.63;;;2.83;;
66603;SDS011;53460;39.612;8.822;2024-03-08T12:05:03;6.32;;;1.70;;
66603;SDS011;53460;39.612;8.822;2024-03-08T12:07:29;4.65;;;1.90;;
66603;SDS011;53460;39.612;8.822;2024-03-08T12:10:16;3.60;;;1.58;;
66603;SDS011;53460;39.612;8.822;2024-03-08T12:12:52;5.28;;;1.92;;
66603;SDS011;53460;39.612;8.822;2024-03-08T12:15:19;3.42;;;1.70;;
66603;SDS011;53460;39.612;8.822;2024-03-08T12:17:47;5.55;;;2.65;;
66603;SDS011;53460;39.612;8.822;2024-03-08T12:22:44;7.00;;;4.57;;
66603;SDS011;53460;39.612;8.822;2024-03-08T12:25:12;4.82;;;1.90;;
66603;SDS011;53460;39.612;8.822;2024-03-08T12:27:39;2.20;;;1.38;;
66603;SDS011;53460;39.612;8.822;2024-03-08T12:30:24;6.03;;;2.75;;
66603;SDS011;53460;39.612;8.822;2024-03-08T12:35:22;7.88;;;1.60;;
66603;SDS011;53460;39.612;8.822;2024-03-08T12:37:50;9.38;;;2.20;;
66603;SDS011;53460;39.612;8.822;2024-03-08T12:40:16;5.80;;;2.00;;
66603;SDS011;53460;39.612;8.822;2024-03-08T12:42:43;3.67;;;1.60;;
66603;SDS011;53460;39.612;8.822;2024-03-08T12:45:09;5.15;;;2.25;;
66603;SDS011;53460;39.612;8.822;2024-03-08T12:47:35;6.70;;;1.73;;
66603;SDS011;53460;39.612;8.822;2024-03-08T12:50:02;8.18;;;2.75;;
66603;SDS011;53460;39.612;8.822;2024-03-08T12:52:28;6.18;;;2.90;;
66603;SDS011;53460;39.612;8.822;2024-03-08T12:54:55;9.60;;;1.95;;
66603;SDS011;53460;39.612;8.822;2024-03-08T12:57:21;7.43;;;2.53;;
66603;SDS011;53460;39.612;8.822;2024-03-08T12:59:47;10.57;;;1.98;;
66603;SDS011;53460;39.612;8.822;2024-03-08T13:02:14;7.32;;;3.00;;
66603;SDS011;53460;39.612;8.822;2024-03-08T13:04:41;4.78;;;2.03;;
66603;SDS011;53460;39.612;8.822;2024-03-08T13:07:07;5.22;;;1.88;;
66603;SDS011;53460;39.612;8.822;2024-03-08T13:09:33;5.75;;;3.13;;
66603;SDS011;53460;39.612;8.822;2024-03-08T13:12:02;5.57;;;2.20;;
66603;SDS011;53460;39.612;8.822;2024-03-08T13:14:28;5.97;;;2.35;;
66603;SDS011;53460;39.612;8.822;2024-03-08T13:16:57;8.73;;;4.80;;
66603;SDS011;53460;39.612;8.822;2024-03-08T13:19:24;8.90;;;4.78;;
66603;SDS011;53460;39.612;8.822;2024-03-08T13:21:53;5.18;;;2.55;;
66603;SDS011;53460;39.612;8.822;2024-03-08T13:24:19;4.40;;;1.85;;
66603;SDS011;53460;39.612;8.822;2024-03-08T13:26:45;7.63;;;2.65;;
66603;SDS011;53460;39.612;8.822;2024-03-08T13:29:10;4.13;;;2.33;;
66603;SDS011;53460;39.612;8.822;2024-03-08T13:31:36;7.68;;;2.95;;
66603;SDS011;53460;39.612;8.822;2024-03-08T13:34:01;5.82;;;2.40;;
66603;SDS011;53460;39.612;8.822;2024-03-08T13:36:30;5.32;;;2.25;;
66603;SDS011;53460;39.612;8.822;2024-03-08T13:39:04;7.03;;;3.85;;
66603;SDS011;53460;39.612;8.822;2024-03-08T13:41:40;5.88;;;2.30;;
66603;SDS011;53460;39.612;8.822;2024-03-08T13:44:10;5.30;;;2.08;;
66603;SDS011;53460;39.612;8.822;2024-03-08T13:46:35;4.05;;;2.35;;
66603;SDS011;53460;39.612;8.822;2024-03-08T13:49:05;7.13;;;2.58;;
66603;SDS011;53460;39.612;8.822;2024-03-08T13:51:33;4.50;;;2.08;;
66603;SDS011;53460;39.612;8.822;2024-03-08T13:53:59;4.82;;;2.42;;
66603;SDS011;53460;39.612;8.822;2024-03-08T13:56:31;5.88;;;2.47;;
66603;SDS011;53460;39.612;8.822;2024-03-08T13:58:57;5.72;;;2.42;;
66603;SDS011;53460;39.612;8.822;2024-03-08T14:01:23;7.85;;;2.90;;
66603;SDS011;53460;39.612;8.822;2024-03-08T14:03:49;6.55;;;2.95;;
66603;SDS011;53460;39.612;8.822;2024-03-08T14:06:16;6.65;;;2.63;;
66603;SDS011;53460;39.612;8.822;2024-03-08T14:08:41;8.77;;;4.75;;
66603;SDS011;53460;39.612;8.822;2024-03-08T14:11:07;6.00;;;3.33;;
66603;SDS011;53460;39.612;8.822;2024-03-08T14:13:44;10.60;;;5.30;;
66603;SDS011;53460;39.612;8.822;2024-03-08T14:16:11;10.60;;;4.35;;
66603;SDS011;53460;39.612;8.822;2024-03-08T14:18:39;7.70;;;3.97;;
66603;SDS011;53460;39.612;8.822;2024-03-08T14:21:05;6.43;;;4.72;;
66603;SDS011;53460;39.612;8.822;2024-03-08T14:23:30;6.20;;;4.05;;
66603;SDS011;53460;39.612;8.822;2024-03-08T14:25:58;7.45;;;3.60;;
66603;SDS011;53460;39.612;8.822;2024-03-08T14:28:25;6.43;;;3.65;;
66603;SDS011;53460;39.612;8.822;2024-03-08T14:30:52;8.90;;;4.13;;
66603;SDS011;53460;39.612;8.822;2024-03-08T14:33:19;6.68;;;4.10;;
66603;SDS011;53460;39.612;8.822;2024-03-08T14:35:44;10.55;;;4.30;;
66603;SDS011;53460;39.612;8.822;2024-03-08T14:38:12;8.13;;;4.20;;
66603;SDS011;53460;39.612;8.822;2024-03-08T14:40:38;10.95;;;4.18;;
66603;SDS011;53460;39.612;8.822;2024-03-08T14:43:04;8.23;;;4.10;;
66603;SDS011;53460;39.612;8.822;2024-03-08T14:45:30;7.18;;;3.90;;
66603;SDS011;53460;39.612;8.822;2024-03-08T14:47:56;8.45;;;4.13;;
66603;SDS011;53460;39.612;8.822;2024-03-08T14:50:23;10.07;;;4.00;;
66603;SDS011;53460;39.612;8.822;2024-03-08T14:52:50;9.10;;;4.65;;
66603;SDS011;53460;39.612;8.822;2024-03-08T14:55:17;13.75;;;6.28;;
66603;SDS011;53460;39.612;8.822;2024-03-08T14:57:49;11.27;;;5.90;;
66603;SDS011;53460;39.612;8.822;2024-03-08T15:00:19;11.30;;;5.18;;
66603;SDS011;53460;39.612;8.822;2024-03-08T15:03:01;17.35;;;5.65;;
66603;SDS011;53460;39.612;8.822;2024-03-08T15:05:32;9.65;;;4.68;;
66603;SDS011;53460;39.612;8.822;2024-03-08T15:08:07;10.77;;;4.28;;